createdAt,value
2022-09-12T00:00:58.897Z,44.3020
2022-09-12T00:02:01.100Z,44.3020
2022-09-12T00:03:03.354Z,44.2910
2022-09-12T00:04:03.354Z,44.3020
2022-09-12T00:05:05.617Z,44.3150
2022-09-12T00:06:07.887Z,44.3310
2022-09-12T00:07:10.102Z,44.3190
2022-09-12T00:08:12.434Z,44.3010
2022-09-12T00:09:14.527Z,44.3120
2022-09-12T00:10:16.786Z,44.3240
2022-09-12T00:11:19.015Z,44.3120
2022-09-12T00:12:21.249Z,44.3190
2022-09-12T00:13:23.520Z,44.3010
2022-09-12T00:14:25.715Z,44.3240
2022-09-12T00:15:28.010Z,44.3240
2022-09-12T00:16:28.180Z,44.3370
2022-09-12T00:17:30.419Z,44.2930
2022-09-12T00:18:32.712Z,44.3010
2022-09-12T00:19:34.977Z,44.3120
2022-09-12T00:20:35.080Z,44.3310
2022-09-12T00:21:37.358Z,44.3190
2022-09-12T00:22:39.557Z,44.3010
2022-09-12T00:23:41.844Z,44.2750
2022-09-12T00:24:44.133Z,44.3070
2022-09-12T00:25:46.421Z,44.3370
2022-09-12T00:26:48.704Z,44.3250
2022-09-12T00:27:50.993Z,44.3490
2022-09-12T00:28:53.398Z,44.3070
2022-09-12T00:29:55.570Z,44.3350
2022-09-12T00:30:57.857Z,44.3630
2022-09-12T00:31:58.044Z,44.3350
2022-09-12T00:33:00.218Z,44.3410
2022-09-12T00:34:02.500Z,44.3150
2022-09-12T00:35:04.757Z,44.3210
2022-09-12T00:36:07.002Z,44.3310
2022-09-12T00:37:09.284Z,44.3570
2022-09-12T00:38:11.531Z,44.3470
2022-09-12T00:39:13.801Z,44.3030
2022-09-12T00:40:13.978Z,44.3290
2022-09-12T00:41:16.169Z,44.3070
2022-09-12T00:42:18.436Z,44.3570
2022-09-12T00:43:20.692Z,44.3030
2022-09-12T00:44:20.922Z,44.3390
2022-09-12T00:45:23.163Z,44.3130
2022-09-12T00:46:25.363Z,44.2970
2022-09-12T00:47:27.625Z,44.2850
2022-09-12T00:48:27.732Z,44.3230
2022-09-12T00:49:30.055Z,44.3330
2022-09-12T00:50:32.315Z,44.3250
2022-09-12T00:51:34.599Z,44.3290
2022-09-12T00:52:34.746Z,44.3450
2022-09-12T00:53:37.001Z,44.3190
2022-09-12T00:54:39.195Z,44.3170
2022-09-12T00:55:41.356Z,44.2910
2022-09-12T00:56:43.528Z,44.2850
2022-09-12T00:57:43.612Z,44.3070
2022-09-12T00:58:45.946Z,44.3290
2022-09-12T00:59:48.027Z,44.3130
2022-09-12T01:00:50.283Z,44.2950
2022-09-12T01:01:52.467Z,44.3170
2022-09-12T01:02:54.519Z,44.3200
2022-09-12T01:03:54.595Z,44.3690
2022-09-12T01:04:56.836Z,44.3450
2022-09-12T01:05:59.059Z,44.3450
2022-09-12T01:07:01.235Z,44.3670
2022-09-12T01:08:03.475Z,44.3670
2022-09-12T01:09:03.509Z,44.3450
2022-09-12T01:10:05.717Z,44.3250
2022-09-12T01:11:07.917Z,44.3230
2022-09-12T01:12:10.137Z,44.2950
2022-09-12T01:13:12.349Z,44.3200
2022-09-12T01:14:12.399Z,44.3250
2022-09-12T01:15:14.587Z,44.3330
2022-09-12T01:16:16.811Z,44.3130
2022-09-12T01:17:18.933Z,44.3020
2022-09-12T01:18:21.043Z,44.2910
2022-09-12T01:19:23.238Z,44.2610
2022-09-12T01:20:25.432Z,44.2680
2022-09-12T01:21:27.592Z,44.3000
2022-09-12T01:22:29.786Z,44.3300
2022-09-12T01:23:32.035Z,44.2830
2022-09-12T01:24:34.227Z,44.2950
2022-09-12T01:25:34.374Z,44.3000
2022-09-12T01:26:36.440Z,44.2920
2022-09-12T01:27:38.637Z,44.3270
2022-09-12T01:28:40.854Z,44.3200
2022-09-12T01:29:43.078Z,44.3270
2022-09-12T01:30:45.344Z,44.3020
2022-09-12T01:31:47.632Z,44.3000
2022-09-12T01:32:49.833Z,44.3020
2022-09-12T01:33:52.088Z,44.3270
2022-09-12T01:34:52.127Z,44.2940
2022-09-12T01:35:54.400Z,44.3060
2022-09-12T01:36:56.379Z,44.3060
2022-09-12T01:37:58.491Z,44.3240
2022-09-12T01:39:00.642Z,44.3420
2022-09-12T01:40:02.851Z,44.3180
2022-09-12T01:41:04.918Z,44.3300
2022-09-12T01:42:07.018Z,44.3180
2022-09-12T01:43:09.146Z,44.2940
2022-09-12T01:44:11.306Z,44.2960
2022-09-12T01:45:13.504Z,44.2660
2022-09-12T01:46:15.665Z,44.2720
2022-09-12T01:47:17.809Z,44.2860
2022-09-12T01:48:19.954Z,44.2740
2022-09-12T01:49:22.164Z,44.3020
2022-09-12T01:50:24.358Z,44.3020
2022-09-12T01:51:26.699Z,44.3080
2022-09-12T01:52:28.806Z,44.3220
2022-09-12T01:53:31.027Z,44.3280
2022-09-12T01:54:33.304Z,44.3140
2022-09-12T01:55:35.474Z,44.2960
2022-09-12T01:56:37.737Z,44.2840
2022-09-12T01:57:39.868Z,44.2780
2022-09-12T01:58:42.092Z,44.2840
2022-09-12T01:59:44.192Z,44.2960
2022-09-12T02:00:46.503Z,44.2720
2022-09-12T02:01:48.756Z,44.2960
2022-09-12T02:02:50.860Z,44.2960
2022-09-12T02:03:53.075Z,44.2900
2022-09-12T02:04:55.282Z,44.2780
2022-09-12T02:05:57.554Z,44.2840
2022-09-12T02:06:59.680Z,44.2840
2022-09-12T02:08:01.872Z,44.2900
2022-09-12T02:09:04.016Z,44.2520
2022-09-12T02:10:06.221Z,44.2600
2022-09-12T02:11:08.394Z,44.2520
2022-09-12T02:12:10.617Z,44.2100
2022-09-12T02:13:10.723Z,44.2340
2022-09-12T02:14:12.898Z,44.2700
2022-09-12T02:15:15.108Z,44.2780
2022-09-12T02:16:17.371Z,44.2470
2022-09-12T02:17:19.571Z,44.2470
2022-09-12T02:18:19.581Z,44.2220
2022-09-12T02:19:21.792Z,44.2700
2022-09-12T02:20:46.494Z,44.2700
2022-09-12T02:21:26.230Z,44.2570
2022-09-12T02:22:28.531Z,44.2640
2022-09-12T02:23:28.518Z,44.2470
2022-09-12T02:24:30.746Z,44.2290
2022-09-12T02:25:33.003Z,44.2100
2022-09-12T02:26:35.248Z,44.2170
2022-09-12T02:27:37.423Z,44.2570
2022-09-12T02:28:37.483Z,44.2390
2022-09-12T02:29:39.724Z,44.2570
2022-09-12T02:30:42.016Z,44.2370
2022-09-12T02:31:44.250Z,44.2420
2022-09-12T02:32:46.477Z,44.2270
2022-09-12T02:33:48.631Z,44.2320
2022-09-12T02:34:50.808Z,44.2080
2022-09-12T02:35:53.060Z,44.2300
2022-09-12T02:36:55.343Z,44.1970
2022-09-12T02:37:55.425Z,44.1990
2022-09-12T02:38:57.662Z,44.2050
2022-09-12T02:40:00.035Z,44.2110
2022-09-12T02:41:02.261Z,44.2030
2022-09-12T02:42:02.301Z,44.2450
2022-09-12T02:43:04.619Z,44.2090
2022-09-12T02:44:06.948Z,44.2030
2022-09-12T02:45:09.139Z,44.2270
2022-09-12T02:46:09.354Z,44.2090
2022-09-12T02:47:11.564Z,44.1970
2022-09-12T02:48:13.951Z,44.2210
2022-09-12T02:49:16.091Z,44.1830
2022-09-12T02:50:16.257Z,44.2110
2022-09-12T02:51:23.406Z,44.2250
2022-09-12T02:52:20.749Z,44.2430
2022-09-12T02:53:23.089Z,44.1990
2022-09-12T02:54:25.243Z,44.2150
2022-09-12T02:55:27.565Z,44.2250
2022-09-12T02:56:29.816Z,44.1990
2022-09-12T02:57:32.072Z,44.1990
2022-09-12T02:58:32.308Z,44.1750
2022-09-12T02:59:34.495Z,44.2090
2022-09-12T03:00:36.721Z,44.2110
2022-09-12T03:01:38.990Z,44.2030
2022-09-12T03:02:39.111Z,44.1990
2022-09-12T03:03:43.414Z,44.1630
2022-09-12T03:04:43.679Z,44.1870
2022-09-12T03:05:45.974Z,44.1990
2022-09-12T03:06:45.975Z,44.2050
2022-09-12T03:07:48.192Z,44.1990
2022-09-12T03:08:50.475Z,44.1990
2022-09-12T03:09:52.797Z,44.1750
2022-09-12T03:10:55.037Z,44.1570
2022-09-12T03:11:57.357Z,44.1810
2022-09-12T03:12:59.630Z,44.1930
2022-09-12T03:14:01.980Z,44.1810
2022-09-12T03:15:04.204Z,44.1470
2022-09-12T03:16:06.523Z,44.1470
2022-09-12T03:17:08.711Z,44.1410
2022-09-12T03:18:10.960Z,44.1370
2022-09-12T03:19:13.298Z,44.1720
2022-09-12T03:20:15.513Z,44.1570
2022-09-12T03:21:17.845Z,44.1590
2022-09-12T03:22:20.068Z,44.1240
2022-09-12T03:23:22.371Z,44.1540
2022-09-12T03:24:24.702Z,44.1470
2022-09-12T03:25:26.875Z,44.1370
2022-09-12T03:26:29.130Z,44.1420
2022-09-12T03:27:31.432Z,44.1470
2022-09-12T03:28:33.714Z,44.1660
2022-09-12T03:29:33.828Z,44.1420
2022-09-12T03:30:36.136Z,44.1350
2022-09-12T03:31:38.367Z,44.1420
2022-09-12T03:32:40.676Z,44.1240
2022-09-12T03:33:40.764Z,44.1380
2022-09-12T03:34:43.067Z,44.1380
2022-09-12T03:35:45.364Z,44.1350
2022-09-12T03:36:47.488Z,44.1200
2022-09-12T03:37:49.750Z,44.1040
2022-09-12T03:38:51.985Z,44.1100
2022-09-12T03:39:54.357Z,44.0900
2022-09-12T03:40:56.550Z,44.1240
2022-09-12T03:41:58.828Z,44.1300
2022-09-12T03:43:01.175Z,44.1240
2022-09-12T03:44:03.395Z,44.0920
2022-09-12T03:45:03.540Z,44.1420
2022-09-12T03:46:05.850Z,44.1100
2022-09-12T03:47:11.279Z,44.1240
2022-09-12T03:48:10.316Z,44.1360
2022-09-12T03:49:12.538Z,44.1180
2022-09-12T03:50:14.825Z,44.1040
2022-09-12T03:52:40.694Z,43.8980
2022-09-12T03:53:42.843Z,43.7390
2022-09-12T03:54:45.054Z,43.6560
2022-09-12T03:55:47.406Z,43.6080
2022-09-12T03:56:47.394Z,43.5860
2022-09-12T03:57:49.632Z,43.5300
2022-09-12T03:58:51.908Z,43.5420
2022-09-12T03:59:54.148Z,43.5120
2022-09-12T04:00:56.472Z,43.5120
2022-09-12T04:01:58.682Z,43.5180
2022-09-12T04:03:00.892Z,43.5240
2022-09-12T04:04:03.126Z,43.5320
2022-09-12T04:05:05.371Z,43.5320
2022-09-12T04:06:05.580Z,43.5270
2022-09-12T04:07:07.719Z,43.5460
2022-09-12T04:08:09.970Z,43.5190
2022-09-12T04:09:12.222Z,43.5460
2022-09-12T04:10:16.221Z,43.5320
2022-09-12T04:11:16.783Z,43.5370
2022-09-12T04:12:16.869Z,43.5130
2022-09-12T04:13:19.131Z,43.5460
2022-09-12T04:14:21.363Z,43.5410
2022-09-12T04:15:23.592Z,43.5460
2022-09-12T04:16:25.933Z,43.5210
2022-09-12T04:17:28.101Z,43.5460
2022-09-12T04:18:30.353Z,43.4810
2022-09-12T04:19:32.602Z,43.4810
2022-09-12T04:20:34.851Z,43.4810
2022-09-12T04:21:37.209Z,43.4970
2022-09-12T04:22:37.164Z,43.4910
2022-09-12T04:23:39.416Z,43.4870
2022-09-12T04:24:41.663Z,43.4570
2022-09-12T04:25:43.912Z,43.4510
2022-09-12T04:26:46.214Z,43.4510
2022-09-12T04:27:48.432Z,43.4320
2022-09-12T04:28:50.674Z,43.4420
2022-09-12T04:29:52.958Z,43.4420
2022-09-12T04:30:55.195Z,43.4470
2022-09-12T04:31:55.283Z,43.4730
2022-09-12T04:32:57.460Z,43.4470
2022-09-12T04:33:59.639Z,43.4360
2022-09-12T04:35:01.837Z,43.4470
2022-09-12T04:36:04.028Z,43.4470
2022-09-12T04:37:06.247Z,43.4460
2022-09-12T04:38:08.436Z,43.4580
2022-09-12T04:39:10.641Z,43.4510
2022-09-12T04:40:12.920Z,43.4390
2022-09-12T04:41:15.053Z,43.4460
2022-09-12T04:42:17.279Z,43.4260
2022-09-12T04:43:19.443Z,43.4260
2022-09-12T04:44:21.638Z,43.4360
2022-09-12T04:45:23.885Z,43.4300
2022-09-12T04:46:26.093Z,43.4480
2022-09-12T04:47:26.173Z,43.4480
2022-09-12T04:48:28.345Z,43.4600
2022-09-12T04:49:30.554Z,43.4300
2022-09-12T04:50:32.733Z,43.4360
2022-09-12T04:51:34.898Z,43.4420
2022-09-12T04:52:37.132Z,43.4300
2022-09-12T04:53:39.385Z,43.4360
2022-09-12T04:54:41.580Z,43.4420
2022-09-12T04:55:43.874Z,43.4360
2022-09-12T04:56:46.143Z,43.4420
2022-09-12T04:57:48.411Z,43.3980
2022-09-12T04:58:50.645Z,43.4180
2022-09-12T04:59:50.745Z,43.4240
2022-09-12T05:00:53.072Z,43.4120
2022-09-12T05:01:55.224Z,43.4240
2022-09-12T05:02:57.472Z,43.4240
2022-09-12T05:03:59.617Z,43.4180
2022-09-12T05:05:01.833Z,43.4060
2022-09-12T05:06:04.080Z,43.4060
2022-09-12T05:07:06.321Z,43.4000
2022-09-12T05:08:08.613Z,43.3930
2022-09-12T05:09:10.833Z,43.3930
2022-09-12T05:10:13.075Z,43.3870
2022-09-12T05:11:13.147Z,43.3870
2022-09-12T05:12:15.359Z,43.3930
2022-09-12T05:13:17.603Z,43.3690
2022-09-12T05:14:19.729Z,43.3570
2022-09-12T05:15:21.891Z,43.3810
2022-09-12T05:16:24.106Z,43.3570
2022-09-12T05:17:26.239Z,43.3510
2022-09-12T05:19:04.047Z,43.4640
2022-09-12T05:20:05.179Z,43.4580
2022-09-12T05:21:07.371Z,43.4340
2022-09-12T05:22:09.598Z,43.4120
2022-09-12T05:23:11.782Z,43.4180
2022-09-12T05:24:14.034Z,43.4120
2022-09-12T05:25:16.228Z,43.3950
2022-09-12T05:26:18.451Z,43.3880
2022-09-12T05:27:20.652Z,43.3630
2022-09-12T05:28:22.864Z,43.3830
2022-09-12T05:29:25.167Z,43.3760
2022-09-12T05:30:27.368Z,43.3690
2022-09-12T05:31:29.549Z,43.3690
2022-09-12T05:32:31.753Z,43.3430
2022-09-12T05:33:31.850Z,43.3450
2022-09-12T05:34:34.114Z,43.3630
2022-09-12T05:35:36.329Z,43.3090
2022-09-12T05:36:38.509Z,43.3390
2022-09-12T05:37:40.688Z,43.3390
2022-09-12T05:38:42.916Z,43.3630
2022-09-12T05:39:45.211Z,43.3570
2022-09-12T05:40:47.405Z,43.3510
2022-09-12T05:41:49.638Z,43.3450
2022-09-12T05:42:51.865Z,43.3390
2022-09-12T05:43:54.097Z,43.3270
2022-09-12T05:44:56.277Z,43.3350
2022-09-12T05:45:58.504Z,43.3430
2022-09-12T05:46:58.569Z,41.5900
2022-09-12T05:48:00.746Z,40.2340
2022-09-12T05:49:02.950Z,39.6450
2022-09-12T05:50:05.148Z,39.1890
2022-09-12T05:51:07.331Z,39.1340
2022-09-12T05:52:09.540Z,39.2610
2022-09-12T05:53:11.777Z,38.9880
2022-09-12T05:54:13.986Z,39.0460
2022-09-12T05:55:16.270Z,39.2200
2022-09-12T05:56:18.507Z,39.2570
2022-09-12T05:57:20.774Z,39.3220
2022-09-12T05:58:23.091Z,39.7310
2022-09-12T05:59:23.258Z,40.3910
2022-09-12T06:00:25.606Z,40.7670
2022-09-12T06:01:27.967Z,41.2900
2022-09-12T06:02:30.204Z,41.9680
2022-09-12T06:03:32.413Z,42.4830
2022-09-12T06:04:34.690Z,42.6560
2022-09-12T06:05:36.938Z,42.8210
2022-09-12T06:06:36.996Z,42.8210
2022-09-12T06:07:39.274Z,42.7830
2022-09-12T06:08:41.532Z,42.7370
2022-09-12T06:09:43.754Z,42.7190
2022-09-12T06:10:46.056Z,42.6540
2022-09-12T06:11:48.176Z,42.6770
2022-09-12T06:12:50.370Z,42.6200
2022-09-12T06:13:52.573Z,42.5670
2022-09-12T06:14:54.803Z,42.5640
2022-09-12T06:15:57.034Z,42.5370
2022-09-12T06:16:59.307Z,42.5370
2022-09-12T06:18:01.507Z,42.5210
2022-09-12T06:19:01.511Z,42.5700
2022-09-12T06:20:03.722Z,42.5320
2022-09-12T06:21:05.977Z,42.5030
2022-09-12T06:22:08.160Z,42.0970
2022-09-12T06:23:10.410Z,41.0940
2022-09-12T06:24:12.557Z,41.0480
2022-09-12T06:25:14.783Z,40.6050
2022-09-12T06:26:17.040Z,40.6890
2022-09-12T06:27:19.269Z,40.3340
2022-09-12T06:28:21.478Z,40.2600
2022-09-12T06:29:23.692Z,40.1630
2022-09-12T06:30:26.078Z,40.0920
2022-09-12T06:31:28.147Z,40.0790
2022-09-12T06:32:30.341Z,40.0830
2022-09-12T06:33:30.451Z,40.1480
2022-09-12T06:34:32.666Z,40.2310
2022-09-12T06:35:34.905Z,40.2540
2022-09-12T06:36:37.192Z,40.3390
2022-09-12T06:37:39.386Z,40.3240
2022-09-12T06:38:41.717Z,40.3360
2022-09-12T06:39:44.000Z,40.5340
2022-09-12T06:40:46.259Z,40.4620
2022-09-12T06:41:48.581Z,40.4560
2022-09-12T06:42:48.703Z,40.5940
2022-09-12T06:43:51.005Z,40.5290
2022-09-12T06:44:53.300Z,40.5020
2022-09-12T06:45:55.617Z,40.5390
2022-09-12T06:46:58.000Z,40.5520
2022-09-12T06:48:00.202Z,40.5930
2022-09-12T06:49:00.382Z,40.5780
2022-09-12T06:50:02.674Z,40.6400
2022-09-12T06:51:04.959Z,40.7280
2022-09-12T06:52:07.230Z,40.8610
2022-09-12T06:53:09.455Z,40.9580
2022-09-12T06:54:11.702Z,41.1980
2022-09-12T06:55:14.218Z,41.2980
2022-09-12T06:56:14.151Z,41.3200
2022-09-12T06:57:16.462Z,41.3800
2022-09-12T06:58:18.702Z,41.4160
2022-09-12T06:59:20.982Z,41.4580
2022-09-12T07:00:23.290Z,41.4800
2022-09-12T07:01:23.475Z,41.5460
2022-09-12T07:02:25.816Z,41.5460
2022-09-12T07:03:27.982Z,41.5890
2022-09-12T07:04:30.307Z,41.6010
2022-09-12T07:05:32.557Z,41.6620
2022-09-12T07:06:34.788Z,41.7230
2022-09-12T07:07:37.068Z,41.7820
2022-09-12T07:08:39.303Z,41.7680
2022-09-12T07:09:39.437Z,41.8070
2022-09-12T07:10:41.728Z,41.8400
2022-09-12T07:11:44.006Z,41.8790
2022-09-12T07:12:46.260Z,41.9370
2022-09-12T07:13:48.517Z,42.0030
2022-09-12T07:14:50.800Z,42.1130
2022-09-12T07:15:53.072Z,42.1860
2022-09-12T07:16:55.448Z,42.4430
2022-09-12T07:17:55.546Z,42.5940
2022-09-12T07:18:57.845Z,42.5940
2022-09-12T07:20:00.197Z,42.5410
2022-09-12T07:21:02.314Z,42.5320
2022-09-12T07:22:04.605Z,42.5900
2022-09-12T07:23:04.781Z,42.5620
2022-09-12T07:24:07.053Z,42.5680
2022-09-12T07:25:09.353Z,42.5360
2022-09-12T07:26:11.640Z,42.4970
2022-09-12T07:27:13.939Z,42.5520
2022-09-12T07:28:16.261Z,42.5710
2022-09-12T07:29:36.586Z,42.6090
2022-09-12T07:30:18.738Z,42.6120
2022-09-12T07:31:21.037Z,42.5630
2022-09-12T07:32:23.353Z,42.5530
2022-09-12T07:33:25.704Z,42.5650
2022-09-12T07:34:28.024Z,42.5770
2022-09-12T07:35:28.247Z,42.5610
2022-09-12T07:36:30.423Z,42.5790
2022-09-12T07:37:32.745Z,42.5940
2022-09-12T07:38:35.226Z,42.5700
2022-09-12T07:39:37.447Z,42.5840
2022-09-12T07:40:39.718Z,42.5760
2022-09-12T07:41:39.895Z,42.6060
2022-09-12T07:42:42.212Z,42.6160
2022-09-12T07:43:44.598Z,42.6180
2022-09-12T07:44:46.850Z,42.6220
2022-09-12T07:45:49.187Z,42.6610
2022-09-12T07:46:51.436Z,42.6730
2022-09-12T07:47:51.597Z,42.6670
2022-09-12T07:48:53.935Z,42.7100
2022-09-12T07:49:56.228Z,42.7160
2022-09-12T07:50:58.521Z,42.7180
2022-09-12T07:52:00.759Z,42.7180
2022-09-12T07:53:03.019Z,42.7430
2022-09-12T07:54:05.315Z,42.7790
2022-09-12T07:55:05.436Z,42.7850
2022-09-12T07:56:07.715Z,42.8040
2022-09-12T07:57:09.969Z,42.7850
2022-09-12T07:58:12.245Z,42.8100
2022-09-12T07:59:25.353Z,42.8280
2022-09-12T08:00:16.778Z,42.8680
2022-09-12T08:01:19.084Z,42.8520
2022-09-12T08:02:21.420Z,42.8650
2022-09-12T08:03:21.474Z,42.8890
2022-09-12T08:04:23.751Z,42.9010
2022-09-12T08:05:25.973Z,42.9110
2022-09-12T08:06:28.205Z,42.9350
2022-09-12T08:07:30.437Z,42.9350
2022-09-12T08:08:32.733Z,42.9660
2022-09-12T08:09:35.096Z,42.9740
2022-09-12T08:10:37.280Z,42.9920
2022-09-12T08:11:37.399Z,42.9920
2022-09-12T08:12:39.698Z,42.9800
2022-09-12T08:13:42.092Z,42.9740
2022-09-12T08:14:44.285Z,43.0080
2022-09-12T08:15:46.634Z,43.0160
2022-09-12T08:16:48.904Z,43.0530
2022-09-12T08:17:51.206Z,43.0370
2022-09-12T08:18:51.331Z,43.0550
2022-09-12T08:19:53.637Z,43.0430
2022-09-12T08:20:55.925Z,43.0430
2022-09-12T08:21:58.275Z,43.0370
2022-09-12T08:23:00.586Z,43.0630
2022-09-12T08:24:02.925Z,43.0630
2022-09-12T08:25:03.128Z,43.0590
2022-09-12T08:26:06.480Z,43.0650
2022-09-12T08:27:07.812Z,43.0830
2022-09-12T08:28:10.130Z,43.1020
2022-09-12T08:29:12.454Z,43.0800
2022-09-12T08:30:12.650Z,43.1080
2022-09-12T08:31:14.987Z,43.1140
2022-09-12T08:32:17.248Z,43.1040
2022-09-12T08:33:19.553Z,43.1160
2022-09-12T08:34:21.866Z,43.3920
2022-09-12T08:35:24.208Z,43.8370
2022-09-12T08:36:24.360Z,44.1660
2022-09-12T08:37:26.709Z,44.6770
2022-09-12T08:38:29.041Z,44.9780
2022-09-12T08:39:31.360Z,45.2260
2022-09-12T08:40:33.835Z,45.5120
2022-09-12T08:41:36.103Z,45.6200
2022-09-12T08:42:36.308Z,45.7040
2022-09-12T08:43:38.684Z,45.8470
2022-09-12T08:44:41.030Z,45.9220
2022-09-12T08:45:41.278Z,46.2160
2022-09-12T08:46:43.592Z,46.3830
2022-09-12T08:47:45.896Z,46.4240
2022-09-12T08:48:48.331Z,46.7810
2022-09-12T08:49:50.617Z,46.9210
2022-09-12T08:50:50.869Z,46.8520
2022-09-12T08:51:53.196Z,46.8040
2022-09-12T08:52:55.582Z,46.7240
2022-09-12T08:53:57.920Z,46.6290
2022-09-12T08:55:00.267Z,46.4580
2022-09-12T08:56:00.522Z,46.5240
2022-09-12T08:57:02.763Z,46.5260
2022-09-12T08:58:05.081Z,46.4840
2022-09-12T08:59:07.366Z,46.6010
2022-09-12T09:00:09.707Z,46.6780
2022-09-12T09:01:12.077Z,46.8120
2022-09-12T09:02:12.288Z,46.8120
2022-09-12T09:03:14.570Z,46.7940
2022-09-12T09:04:16.921Z,46.8160
2022-09-12T09:05:19.269Z,46.7650
2022-09-12T09:06:21.641Z,46.6450
2022-09-12T09:07:21.817Z,46.7590
2022-09-12T09:08:24.221Z,46.8750
2022-09-12T09:09:26.581Z,46.7310
2022-09-12T09:10:28.966Z,46.9370
2022-09-12T09:11:31.377Z,47.0290
2022-09-12T09:12:31.553Z,46.8620
2022-09-12T09:13:33.883Z,46.8240
2022-09-12T09:14:36.182Z,46.8240
2022-09-12T09:15:38.589Z,46.7210
2022-09-12T09:16:41.139Z,46.8120
2022-09-12T09:17:41.047Z,46.9580
2022-09-12T09:18:43.341Z,47.0110
2022-09-12T09:19:48.894Z,47.0390
2022-09-12T09:20:47.918Z,46.9580
2022-09-12T09:21:50.354Z,46.8380
2022-09-12T09:22:50.376Z,46.7960
2022-09-12T09:23:52.697Z,46.7700
2022-09-12T09:24:54.948Z,46.6270
2022-09-12T09:25:57.192Z,46.5730
2022-09-12T09:26:59.488Z,46.5320
2022-09-12T09:28:01.746Z,46.5300
2022-09-12T09:29:04.058Z,46.3780
2022-09-12T09:30:06.306Z,46.2210
2022-09-12T09:31:06.512Z,46.3040
2022-09-12T09:32:08.769Z,46.3660
2022-09-12T09:33:11.047Z,46.3420
2022-09-12T09:34:13.351Z,46.3420
2022-09-12T09:35:15.661Z,46.3820
2022-09-12T09:36:17.917Z,46.2920
2022-09-12T09:37:20.201Z,46.5200
2022-09-12T09:38:20.356Z,46.6800
2022-09-12T09:39:22.679Z,46.8410
2022-09-12T09:40:24.967Z,47.0450
2022-09-12T09:41:27.254Z,47.3290
2022-09-12T09:42:29.569Z,46.9440
2022-09-12T09:43:31.854Z,47.0470
2022-09-12T09:44:34.158Z,47.2180
2022-09-12T09:45:34.320Z,47.4760
2022-09-12T09:46:36.676Z,47.5130
2022-09-12T09:47:39.004Z,47.4850
2022-09-12T09:48:41.275Z,47.2860
2022-09-12T09:49:43.564Z,47.1390
2022-09-12T09:50:45.787Z,47.2380
2022-09-12T09:51:45.916Z,47.3500
2022-09-12T09:52:48.327Z,47.3180
2022-09-12T09:53:50.570Z,47.0310
2022-09-12T09:54:52.895Z,47.0890
2022-09-12T09:55:55.204Z,47.2840
2022-09-12T09:56:55.388Z,47.2690
2022-09-12T09:57:57.792Z,47.2350
2022-09-12T09:58:59.961Z,47.0930
2022-09-12T10:00:02.257Z,46.8580
2022-09-12T10:01:04.617Z,46.7550
2022-09-12T10:02:06.927Z,46.8310
2022-09-12T10:03:13.468Z,46.8930
2022-09-12T10:04:09.375Z,46.8800
2022-09-12T10:05:11.679Z,46.7360
2022-09-12T10:06:13.992Z,46.6140
2022-09-12T10:07:16.313Z,46.3620
2022-09-12T10:08:18.607Z,46.3150
2022-09-12T10:09:20.863Z,46.2080
2022-09-12T10:10:20.997Z,46.1500
2022-09-12T10:11:23.221Z,46.0430
2022-09-12T10:12:25.482Z,45.9690
2022-09-12T10:13:27.790Z,45.9860
2022-09-12T10:14:30.042Z,45.9620
2022-09-12T10:15:32.392Z,45.9700
2022-09-12T10:16:34.638Z,45.9820
2022-09-12T10:17:36.922Z,45.9680
2022-09-12T10:18:37.094Z,45.9540
2022-09-12T10:19:39.367Z,45.9640
2022-09-12T10:20:41.592Z,45.9520
2022-09-12T10:21:43.907Z,45.9480
2022-09-12T10:22:46.230Z,45.9420
2022-09-12T10:23:48.645Z,45.9050
2022-09-12T10:24:50.854Z,45.8710
2022-09-12T10:25:51.031Z,45.8120
2022-09-12T10:26:56.598Z,45.8060
2022-09-12T10:27:55.629Z,45.7980
2022-09-12T10:28:57.966Z,45.7360
2022-09-12T10:29:58.126Z,45.7260
2022-09-12T10:31:00.499Z,45.6960
2022-09-12T10:32:02.758Z,45.7380
2022-09-12T10:33:05.036Z,45.7040
2022-09-12T10:34:07.330Z,45.6920
2022-09-12T10:35:09.533Z,45.7140
2022-09-12T10:36:11.759Z,45.6630
2022-09-12T10:37:11.836Z,45.6890
2022-09-12T10:38:14.115Z,45.6510
2022-09-12T10:39:16.410Z,45.5110
2022-09-12T10:40:18.693Z,45.5710
2022-09-12T10:42:10.447Z,45.6670
2022-09-12T10:43:12.507Z,45.4470
2022-09-12T10:44:14.752Z,45.4910
2022-09-12T10:45:17.108Z,45.4150
2022-09-12T10:46:19.290Z,45.5050
2022-09-12T10:47:21.434Z,45.5490
2022-09-12T10:48:23.656Z,45.5330
2022-09-12T10:49:25.871Z,45.5450
2022-09-12T10:50:25.992Z,45.5830
2022-09-12T10:51:28.185Z,45.5890
2022-09-12T10:52:30.404Z,45.6450
2022-09-12T10:53:34.717Z,45.6220
2022-09-12T10:54:34.868Z,45.5780
2022-09-12T10:55:37.180Z,45.4920
2022-09-12T10:56:39.291Z,45.4300
2022-09-12T10:57:41.531Z,45.5000
2022-09-12T10:58:43.753Z,45.5260
2022-09-12T10:59:45.974Z,45.5280
2022-09-12T11:00:48.211Z,45.4260
2022-09-12T11:01:50.491Z,45.4380
2022-09-12T11:02:52.736Z,45.3850
2022-09-12T11:03:52.722Z,45.4080
2022-09-12T11:04:54.920Z,45.4140
2022-09-12T11:05:57.249Z,45.4260
2022-09-12T11:06:59.336Z,45.3900
2022-09-12T11:08:01.523Z,45.4380
2022-09-12T11:09:03.746Z,45.5120
2022-09-12T11:10:05.974Z,45.5200
2022-09-12T11:11:08.297Z,45.4540
2022-09-12T11:12:10.374Z,45.5140
2022-09-12T11:13:12.626Z,45.5320
2022-09-12T11:14:14.863Z,45.5200
2022-09-12T11:15:17.036Z,45.5740
2022-09-12T11:16:19.412Z,45.5720
2022-09-12T11:17:19.412Z,45.5460
2022-09-12T11:18:21.692Z,45.6140
2022-09-12T11:19:23.962Z,45.5660
2022-09-12T11:20:26.260Z,45.6020
2022-09-12T11:21:28.591Z,45.5720
2022-09-12T11:22:32.054Z,45.5440
2022-09-12T11:23:33.103Z,45.5740
2022-09-12T11:24:35.352Z,45.5780
2022-09-12T11:25:35.473Z,45.5560
2022-09-12T11:26:37.774Z,45.6340
2022-09-12T11:27:40.047Z,45.6500
2022-09-12T11:28:46.683Z,45.7080
2022-09-12T11:29:44.476Z,45.7190
2022-09-12T11:30:46.751Z,45.7080
2022-09-12T11:31:49.004Z,45.7310
2022-09-12T11:32:51.193Z,45.7490
2022-09-12T11:33:56.614Z,45.7110
2022-09-12T11:34:55.658Z,45.8050
2022-09-12T11:35:55.852Z,45.8290
2022-09-12T11:36:58.061Z,45.8110
2022-09-12T11:38:00.163Z,45.8110
2022-09-12T11:39:02.403Z,45.7730
2022-09-12T11:40:04.694Z,45.7080
2022-09-12T11:41:06.860Z,45.6520
2022-09-12T11:42:09.133Z,45.7390
2022-09-12T11:43:11.342Z,45.7020
2022-09-12T11:44:13.611Z,45.7180
2022-09-12T11:45:15.842Z,45.7430
2022-09-12T11:46:18.245Z,45.7520
2022-09-12T11:47:20.373Z,45.6340
2022-09-12T11:48:22.581Z,45.5840
2022-09-12T11:49:24.838Z,45.5540
2022-09-12T11:50:27.061Z,45.5660
2022-09-12T11:51:29.326Z,45.5600
2022-09-12T11:52:31.685Z,45.5800
2022-09-12T11:53:33.832Z,45.5740
2022-09-12T11:54:36.077Z,45.5450
2022-09-12T11:55:38.305Z,45.6300
2022-09-12T11:56:38.415Z,45.6120
2022-09-12T11:57:40.697Z,45.6560
2022-09-12T11:58:42.911Z,45.6640
2022-09-12T11:59:45.139Z,45.7040
2022-09-12T12:00:47.362Z,45.6880
2022-09-12T12:01:49.666Z,45.6940
2022-09-12T12:02:51.979Z,45.6510
2022-09-12T12:03:54.319Z,45.6570
2022-09-12T12:04:56.570Z,45.6760
2022-09-12T12:05:56.707Z,45.6570
2022-09-12T12:06:58.955Z,45.6440
2022-09-12T12:08:01.331Z,45.6250
2022-09-12T12:09:03.500Z,45.6970
2022-09-12T12:10:05.791Z,45.7600
2022-09-12T12:11:08.062Z,45.8020
2022-09-12T12:12:10.329Z,45.8340
2022-09-12T12:13:14.093Z,45.8580
2022-09-12T12:14:12.733Z,45.9050
2022-09-12T12:15:15.033Z,46.0340
2022-09-12T12:16:17.247Z,45.9990
2022-09-12T12:17:19.436Z,46.0460
2022-09-12T12:18:21.834Z,46.0740
2022-09-12T12:19:23.951Z,46.0670
2022-09-12T12:21:43.508Z,45.9610
2022-09-12T12:22:45.649Z,45.9310
2022-09-12T12:23:48.055Z,45.9370
2022-09-12T12:24:49.991Z,45.9730
2022-09-12T12:25:52.172Z,45.9990
2022-09-12T12:26:54.355Z,46.0780
2022-09-12T12:27:56.567Z,46.0230
2022-09-12T12:28:58.806Z,46.0050
2022-09-12T12:30:00.993Z,45.9670
2022-09-12T12:31:03.429Z,45.9430
2022-09-12T12:32:05.438Z,45.9120
2022-09-12T12:33:07.671Z,45.9490
2022-09-12T12:33:48.462Z,45.8860